Terminal Aerodrome Forecast
Issued by NWS

Home | Current Version | Previous Version | Text Only | Print | Product List | Glossary On
Versions: 1 2 3 4 5 6 7 8 9 10 11 12 13 14 15 16 17 18 19 20 21 22 23 24
000
FTUS43 KBIS 202300
TAFMOT
TAF
KMOT 202338Z 2100/2124 32018G30KT P6SM SKC
     FM210200 31010KT P6SM SKC
     FM210700 32008KT P6SM BKN100
     FM211300 33012KT P6SM SCT080
     FM211800 33015KT P6SM SCT080=

USA.gov is the U.S. government's official web portal to all federal, state and local government web resources and services.